TXKF/BDA METAR and TAF weather

Enter ICAO airport designator
Station Type Date Time Source
TXKF METAR 2020/04/05 16:55 UTC NOAA

TXKF 051655Z 31012KT 9999 VCSH SCT020TCU BKN065 20/15 Q1007 RMK TCU DSNT W


Station Type Date Time Source
TXKF Decoded METAR 2020/04/05 16:55 UTC NOAA

Bermuda, Bermuda (TXKF) 32-22N 064-41W
Apr 05, 2020 - 12:55 PM EDT / 2020.04.05 1655 UTC
Wind: from the NW (310 degrees) at 14 MPH (12 KT):0
Visibility: greater than 7 mile(s):0
Sky conditions: mostly cloudy
Weather: showers in the vicinity; Towering cumulus clouds observed
Temperature: 68 F (20 C)
Dew Point: 59 F (15 C)
Relative Humidity: 72%
Pressure (altimeter): 29.74 in. Hg (1007 hPa)
ob: TXKF 051655Z 31012KT 9999 VCSH SCT020TCU BKN065 20/15 Q1007 RMK TCU DSNT W
cycle: 17

Station Type Date Time Source
TXKF TAF 2020/04/05 12:37 UTC NOAA

TAF TXKF 051131Z 0512/0612 32018KT 9999 VCSH SCT030 BKN050 PROB30
TEMPO 0512/0612 32020G30KT 4000 SHRA SCT014 BKN018 OVC050

Example: see airport list